createdAt,value
2022-09-01T00:01:29.267Z,3.22
2022-09-01T00:04:03.614Z,2.90
2022-09-01T00:06:32.920Z,1.30
2022-09-01T00:09:03.334Z,5.75
2022-09-01T00:11:31.544Z,4.93
2022-09-01T00:13:59.854Z,0.88
2022-09-01T00:16:27.533Z,2.17
2022-09-01T00:18:55.689Z,1.73
2022-09-01T00:21:25.195Z,1.30
2022-09-01T00:23:53.247Z,2.90
2022-09-01T00:26:22.479Z,5.50
2022-09-01T00:28:51.116Z,6.13
2022-09-01T00:31:20.074Z,2.53
2022-09-01T00:33:47.924Z,2.10
2022-09-01T00:36:15.723Z,1.30
2022-09-01T00:38:43.427Z,1.67
2022-09-01T00:41:11.157Z,1.10
2022-09-01T00:43:41.432Z,1.75
2022-09-01T00:46:10.820Z,5.30
2022-09-01T00:48:38.749Z,1.25
2022-09-01T00:51:07.043Z,1.10
2022-09-01T00:53:35.429Z,1.70
2022-09-01T00:56:03.447Z,1.70
2022-09-01T00:58:31.312Z,2.90
2022-09-01T01:01:00.519Z,5.75
2022-09-01T01:03:30.324Z,0.93
2022-09-01T01:05:59.173Z,2.20
2022-09-01T01:08:34.147Z,3.60
2022-09-01T01:11:02.472Z,3.72
2022-09-01T01:13:36.319Z,1.50
2022-09-01T01:16:12.067Z,3.80
2022-09-01T01:18:39.745Z,3.47
2022-09-01T01:21:29.316Z,1.85
2022-09-01T01:23:59.824Z,1.25
2022-09-01T01:26:28.991Z,1.58
2022-09-01T01:28:57.067Z,1.63
2022-09-01T01:31:25.719Z,4.07
2022-09-01T01:33:54.536Z,2.95
2022-09-01T01:36:29.255Z,3.28
2022-09-01T01:39:03.533Z,1.50
2022-09-01T01:44:04.385Z,5.00
2022-09-01T01:46:32.696Z,6.53
2022-09-01T01:49:02.856Z,6.07
2022-09-01T01:51:31.995Z,15.95
2022-09-01T01:54:02.303Z,11.35
2022-09-01T01:56:30.015Z,8.93
2022-09-01T01:58:58.979Z,9.43
2022-09-01T02:01:29.280Z,10.80
2022-09-01T02:03:57.862Z,8.75
2022-09-01T02:06:29.561Z,9.35
2022-09-01T02:08:58.169Z,11.57
2022-09-01T02:11:26.831Z,7.70
2022-09-01T02:13:57.488Z,13.85
2022-09-01T02:16:25.740Z,12.30
2022-09-01T02:18:54.861Z,13.68
2022-09-01T02:21:24.271Z,16.30
2022-09-01T02:24:01.366Z,9.13
2022-09-01T02:26:31.362Z,15.85
2022-09-01T02:29:01.969Z,14.35
2022-09-01T02:31:29.720Z,18.33
2022-09-01T02:33:58.735Z,13.77
2022-09-01T02:36:26.926Z,11.95
2022-09-01T02:38:56.802Z,9.15
2022-09-01T02:41:30.176Z,15.32
2022-09-01T02:43:58.711Z,11.50
2022-09-01T02:46:26.858Z,9.50
2022-09-01T02:48:54.685Z,8.50
2022-09-01T02:51:25.814Z,12.95
2022-09-01T02:53:54.103Z,13.27
2022-09-01T02:56:24.948Z,11.25
2022-09-01T02:58:53.354Z,20.25
2022-09-01T03:01:22.854Z,16.13
2022-09-01T03:03:51.282Z,11.43
2022-09-01T03:06:19.904Z,13.88
2022-09-01T03:08:48.948Z,15.27
2022-09-01T03:11:16.867Z,14.52
2022-09-01T03:13:44.610Z,14.82
2022-09-01T03:16:12.743Z,14.43
2022-09-01T03:18:40.845Z,21.15
2022-09-01T03:21:09.695Z,19.23
2022-09-01T03:23:38.122Z,17.88
2022-09-01T03:26:07.268Z,16.85
2022-09-01T03:28:34.969Z,19.17
2022-09-01T03:31:02.732Z,16.45
2022-09-01T03:33:30.583Z,21.20
2022-09-01T03:35:58.396Z,15.90
2022-09-01T03:38:26.712Z,14.75
2022-09-01T03:40:59.055Z,13.15
2022-09-01T03:43:34.565Z,15.25
2022-09-01T03:46:04.300Z,16.30
2022-09-01T03:48:32.565Z,15.57
2022-09-01T03:51:02.780Z,13.80
2022-09-01T03:53:31.420Z,13.50
2022-09-01T03:56:00.273Z,16.85
2022-09-01T03:58:29.558Z,13.82
2022-09-01T04:01:00.832Z,12.25
2022-09-01T04:03:31.909Z,22.42
2022-09-01T04:06:00.481Z,16.75
2022-09-01T04:08:32.502Z,11.88
2022-09-01T04:11:03.001Z,15.35
2022-09-01T04:13:34.062Z,16.52
2022-09-01T04:16:01.813Z,11.15
2022-09-01T04:18:29.302Z,16.98
2022-09-01T04:20:57.721Z,15.35
2022-09-01T04:23:27.508Z,16.25
2022-09-01T04:25:56.683Z,18.63
2022-09-01T04:28:25.011Z,17.63
2022-09-01T04:30:58.057Z,23.67
2022-09-01T04:33:26.009Z,17.55
2022-09-01T04:35:54.973Z,11.23
2022-09-01T04:38:23.507Z,19.23
2022-09-01T04:40:51.344Z,10.43
2022-09-01T04:43:19.221Z,12.23
2022-09-01T04:45:49.369Z,11.57
2022-09-01T04:48:19.155Z,13.68
2022-09-01T04:50:49.600Z,10.10
2022-09-01T04:53:18.669Z,12.75
2022-09-01T04:55:47.174Z,14.35
2022-09-01T04:58:18.740Z,18.58
2022-09-01T05:00:49.812Z,10.68
2022-09-01T05:03:21.673Z,9.88
2022-09-01T05:05:49.461Z,15.63
2022-09-01T05:08:23.418Z,16.63
2022-09-01T05:10:55.708Z,11.82
2022-09-01T05:13:24.444Z,11.40
2022-09-01T05:16:02.041Z,11.25
2022-09-01T05:18:31.278Z,12.38
2022-09-01T05:20:59.190Z,22.67
2022-09-01T05:23:27.271Z,15.57
2022-09-01T05:25:56.353Z,10.82
2022-09-01T05:28:25.472Z,17.85
2022-09-01T05:30:54.383Z,13.02
2022-09-01T05:33:22.249Z,11.23
2022-09-01T05:35:55.597Z,9.52
2022-09-01T05:38:25.767Z,14.47
2022-09-01T05:40:57.953Z,9.52
2022-09-01T05:43:27.941Z,8.15
2022-09-01T05:46:06.516Z,10.45
2022-09-01T05:48:36.278Z,14.90
2022-09-01T05:51:17.695Z,9.85
2022-09-01T05:53:56.545Z,8.88
2022-09-01T05:56:24.262Z,6.47
2022-09-01T06:01:43.164Z,7.72
2022-09-01T06:04:13.767Z,7.40
2022-09-01T06:07:05.348Z,9.27
2022-09-01T06:09:33.188Z,7.35
2022-09-01T06:12:01.984Z,8.52
2022-09-01T06:14:29.704Z,7.68
2022-09-01T06:16:57.357Z,6.97
2022-09-01T06:19:24.988Z,7.15
2022-09-01T06:21:54.240Z,5.85
2022-09-01T06:24:21.928Z,7.13
2022-09-01T06:26:49.611Z,9.98
2022-09-01T06:29:17.312Z,8.27
2022-09-01T06:31:47.634Z,6.57
2022-09-01T06:34:17.781Z,6.93
2022-09-01T06:36:45.972Z,8.65
2022-09-01T06:39:20.053Z,5.68
2022-09-01T06:41:49.581Z,10.10
2022-09-01T06:44:23.349Z,7.93
2022-09-01T06:46:51.920Z,9.40
2022-09-01T06:49:21.626Z,4.13
2022-09-01T06:51:52.876Z,9.70
2022-09-01T06:54:22.962Z,4.18
2022-09-01T06:56:51.330Z,6.60
2022-09-01T06:59:19.436Z,6.93
2022-09-01T07:01:49.176Z,7.85
2022-09-01T07:04:22.171Z,8.88
2022-09-01T07:07:53.091Z,8.52
2022-09-01T07:09:47.923Z,4.90
2022-09-01T07:12:27.849Z,3.05
2022-09-01T07:17:44.504Z,6.82
2022-09-01T07:20:28.473Z,4.75
2022-09-01T07:26:00.494Z,6.28
2022-09-01T07:28:25.325Z,8.45
2022-09-01T07:30:54.175Z,6.68
2022-09-01T07:36:28.974Z,9.18
2022-09-01T07:44:35.071Z,17.90
2022-09-01T07:47:20.208Z,16.83
2022-09-01T07:52:36.745Z,22.00
2022-09-01T07:55:05.203Z,27.42
2022-09-01T07:57:34.297Z,25.15
2022-09-01T08:00:01.954Z,26.70
2022-09-01T08:02:29.846Z,33.00
2022-09-01T08:04:58.374Z,27.83
2022-09-01T08:07:26.067Z,32.80
2022-09-01T08:09:56.110Z,35.70
2022-09-01T08:12:29.430Z,33.72
2022-09-01T08:15:38.038Z,32.42
2022-09-01T08:17:53.733Z,35.53
2022-09-01T08:20:21.600Z,38.10
2022-09-01T08:22:49.433Z,40.13
2022-09-01T08:25:19.780Z,40.90
2022-09-01T08:27:49.481Z,37.55
2022-09-01T08:30:18.994Z,36.75
2022-09-01T08:32:46.873Z,33.40
2022-09-01T08:35:16.331Z,45.92
2022-09-01T08:37:47.221Z,40.15
2022-09-01T08:40:15.812Z,49.58
2022-09-01T08:42:51.579Z,36.05
2022-09-01T08:45:24.348Z,38.05
2022-09-01T08:48:28.740Z,29.07
2022-09-01T08:50:42.468Z,31.40
2022-09-01T08:53:14.591Z,24.30
2022-09-01T08:55:44.446Z,40.00
2022-09-01T08:58:13.457Z,61.97
2022-09-01T09:00:50.549Z,68.45
2022-09-01T09:03:24.903Z,63.78
2022-09-01T09:05:59.009Z,60.65
2022-09-01T09:08:41.147Z,61.85
2022-09-01T09:11:18.246Z,66.60
2022-09-01T09:13:56.042Z,65.78
2022-09-01T09:16:27.840Z,76.45
2022-09-01T09:18:57.864Z,64.63
2022-09-01T09:21:27.903Z,67.85
2022-09-01T09:23:58.146Z,77.35
2022-09-01T09:26:26.990Z,70.95
2022-09-01T09:28:55.241Z,74.35
2022-09-01T09:31:28.652Z,74.57
2022-09-01T09:33:58.072Z,65.45
2022-09-01T09:36:31.348Z,42.03
2022-09-01T09:39:09.415Z,40.95
2022-09-01T09:41:37.404Z,47.45
2022-09-01T09:44:08.478Z,38.28
2022-09-01T09:46:40.984Z,32.72
2022-09-01T09:49:19.451Z,37.95
2022-09-01T09:52:16.479Z,42.40
2022-09-01T09:55:00.549Z,40.53
2022-09-01T09:57:29.266Z,31.67
2022-09-01T10:00:01.742Z,28.75
2022-09-01T10:02:33.361Z,37.20
2022-09-01T10:05:01.846Z,30.75
2022-09-01T10:07:31.347Z,33.35
2022-09-01T10:10:01.810Z,30.90
2022-09-01T10:12:30.713Z,19.80
2022-09-01T10:15:05.488Z,20.23
2022-09-01T10:17:43.663Z,19.98
2022-09-01T10:20:25.284Z,16.10
2022-09-01T10:23:15.249Z,11.45
2022-09-01T10:25:44.533Z,4.40
2022-09-01T10:28:20.872Z,7.85
2022-09-01T10:30:50.911Z,5.65
2022-09-01T10:33:22.040Z,5.15
2022-09-01T10:35:51.137Z,3.60
2022-09-01T10:38:20.756Z,2.30
2022-09-01T10:40:51.133Z,7.03
2022-09-01T10:43:38.036Z,7.65
2022-09-01T10:46:38.651Z,15.45
2022-09-01T10:49:25.179Z,13.25
2022-09-01T10:51:56.456Z,14.63
2022-09-01T10:54:51.630Z,20.15
2022-09-01T10:57:30.599Z,14.25
2022-09-01T11:03:30.621Z,13.55
2022-09-01T11:06:17.203Z,14.82
2022-09-01T11:08:51.034Z,17.75
2022-09-01T11:11:27.803Z,15.13
2022-09-01T11:13:58.881Z,21.30
2022-09-01T11:16:49.582Z,21.88
2022-09-01T11:19:33.866Z,26.98
2022-09-01T11:22:11.394Z,30.42
2022-09-01T11:24:55.957Z,31.02
2022-09-01T11:27:46.768Z,25.95
2022-09-01T11:30:17.324Z,27.27
2022-09-01T11:32:47.221Z,20.73
2022-09-01T11:35:17.315Z,20.90
2022-09-01T11:37:48.691Z,26.17
2022-09-01T11:40:21.976Z,29.13
2022-09-01T11:42:52.181Z,19.15
2022-09-01T11:45:24.986Z,22.55
2022-09-01T11:47:53.812Z,26.17
2022-09-01T11:50:37.935Z,26.80
2022-09-01T11:53:08.741Z,23.60
2022-09-01T11:55:37.007Z,18.63
2022-09-01T11:58:05.208Z,21.00
2022-09-01T12:00:33.978Z,17.10
2022-09-01T12:03:01.979Z,19.63
2022-09-01T12:05:31.709Z,16.90
2022-09-01T12:08:00.371Z,18.52
2022-09-01T12:10:32.914Z,15.85
2022-09-01T12:13:04.766Z,7.68
2022-09-01T12:15:35.165Z,7.03
2022-09-01T12:18:19.202Z,8.38
2022-09-01T12:23:22.381Z,8.38
2022-09-01T12:25:51.906Z,14.02
2022-09-01T12:28:19.683Z,18.83
2022-09-01T12:30:47.686Z,25.80
2022-09-01T12:33:30.847Z,19.52
2022-09-01T12:36:14.912Z,12.23
2022-09-01T12:38:42.677Z,10.93
2022-09-01T12:41:25.473Z,7.97
2022-09-01T12:43:54.651Z,11.02
2022-09-01T12:46:42.396Z,7.00
2022-09-01T12:49:20.166Z,21.98
2022-09-01T12:51:48.815Z,20.20
2022-09-01T12:54:17.001Z,30.35
2022-09-01T12:56:49.378Z,32.63
2022-09-01T12:59:35.990Z,42.30
2022-09-01T13:02:26.194Z,39.83
2022-09-01T13:04:55.325Z,40.97
2022-09-01T13:07:23.061Z,38.03
2022-09-01T13:09:50.808Z,36.70
2022-09-01T13:12:21.449Z,42.70
2022-09-01T13:14:49.490Z,30.73
2022-09-01T13:17:17.974Z,33.70
2022-09-01T13:19:45.646Z,32.22
2022-09-01T13:22:13.311Z,28.42
2022-09-01T13:24:41.076Z,30.98
2022-09-01T13:27:24.323Z,30.20
2022-09-01T13:29:53.471Z,22.50
2022-09-01T13:32:22.500Z,28.80
2022-09-01T13:34:51.830Z,26.42
2022-09-01T13:37:20.135Z,23.20
2022-09-01T13:39:48.682Z,30.55
2022-09-01T13:42:16.529Z,24.38
2022-09-01T13:44:44.534Z,25.17
2022-09-01T13:47:30.052Z,23.20
2022-09-01T13:50:07.695Z,18.52
2022-09-01T13:52:36.477Z,23.48
2022-09-01T13:55:04.250Z,21.35
2022-09-01T13:57:36.200Z,21.10
2022-09-01T14:00:06.170Z,23.35
2022-09-01T14:02:35.397Z,20.83
2022-09-01T14:05:03.090Z,18.10
2022-09-01T14:07:32.652Z,15.10
2022-09-01T14:10:00.539Z,19.67
2022-09-01T14:12:30.014Z,15.77
2022-09-01T14:15:17.053Z,17.10
2022-09-01T14:17:48.343Z,19.70
2022-09-01T14:20:18.464Z,19.40
2022-09-01T14:22:46.572Z,14.98
2022-09-01T14:25:14.602Z,16.77
2022-09-01T14:27:42.555Z,17.25
2022-09-01T14:30:14.647Z,19.98
2022-09-01T14:32:42.359Z,19.73
2022-09-01T14:35:11.866Z,19.27
2022-09-01T14:37:39.678Z,17.30
2022-09-01T14:40:08.575Z,20.52
2022-09-01T14:42:37.313Z,17.17
2022-09-01T14:45:05.147Z,21.05
2022-09-01T14:47:33.101Z,20.00
2022-09-01T14:50:00.963Z,21.20
2022-09-01T14:52:30.736Z,16.10
2022-09-01T14:54:59.476Z,21.58
2022-09-01T14:57:31.360Z,20.33
2022-09-01T15:00:06.341Z,19.23
2022-09-01T15:02:34.104Z,18.05
2022-09-01T15:05:01.838Z,18.30
2022-09-01T15:07:31.286Z,17.50
2022-09-01T15:09:59.118Z,19.67
2022-09-01T15:12:31.233Z,18.40
2022-09-01T15:14:59.086Z,26.50
2022-09-01T15:17:26.845Z,23.67
2022-09-01T15:19:54.519Z,22.42
2022-09-01T15:22:25.045Z,24.52
2022-09-01T15:25:13.920Z,21.85
2022-09-01T15:27:41.633Z,21.52
2022-09-01T15:30:16.000Z,20.58
2022-09-01T15:32:44.057Z,24.08
2022-09-01T15:35:12.361Z,29.50
2022-09-01T15:37:40.372Z,29.90
2022-09-01T15:40:10.685Z,23.17
2022-09-01T15:42:38.810Z,26.90
2022-09-01T15:45:08.428Z,28.52
2022-09-01T15:47:36.525Z,25.55
2022-09-01T15:50:05.956Z,10.98
2022-09-01T15:52:35.538Z,13.02
2022-09-01T15:55:04.033Z,14.30
2022-09-01T15:57:33.586Z,15.32
2022-09-01T16:00:01.426Z,13.98
2022-09-01T16:02:29.790Z,12.27
2022-09-01T16:04:58.015Z,11.23
2022-09-01T16:07:26.625Z,12.65
2022-09-01T16:09:58.235Z,11.40
2022-09-01T16:12:26.763Z,7.60
2022-09-01T16:14:56.477Z,7.40
2022-09-01T16:17:27.425Z,5.78
2022-09-01T16:19:57.693Z,4.05
2022-09-01T16:22:29.022Z,5.95
2022-09-01T16:25:00.945Z,7.03
2022-09-01T16:27:33.261Z,5.28
2022-09-01T16:30:04.093Z,4.85
2022-09-01T16:32:33.695Z,4.53
2022-09-01T16:35:04.120Z,3.38
2022-09-01T16:37:39.740Z,5.55
2022-09-01T16:40:14.110Z,5.55
2022-09-01T16:42:47.069Z,3.00
2022-09-01T16:45:20.472Z,6.05
2022-09-01T16:47:52.564Z,2.97
2022-09-01T16:50:23.915Z,3.22
2022-09-01T16:53:04.719Z,3.72
2022-09-01T16:55:38.191Z,2.70
2022-09-01T16:58:08.373Z,5.60
2022-09-01T17:00:41.706Z,6.32
2022-09-01T17:03:16.946Z,3.53
2022-09-01T17:05:48.253Z,4.97
2022-09-01T17:08:20.008Z,6.75
2022-09-01T17:10:54.689Z,3.47
2022-09-01T17:13:24.391Z,2.42
2022-09-01T17:16:02.697Z,5.37
2022-09-01T17:18:33.604Z,6.00
2022-09-01T17:21:04.582Z,2.72
2022-09-01T17:23:35.647Z,2.83
2022-09-01T17:26:05.052Z,3.15
2022-09-01T17:28:35.713Z,4.03
2022-09-01T17:31:13.320Z,2.97
2022-09-01T17:33:46.811Z,5.38
2022-09-01T17:36:24.097Z,2.80
2022-09-01T17:38:55.043Z,3.45
2022-09-01T17:41:30.336Z,11.63
2022-09-01T17:44:07.229Z,6.13
2022-09-01T17:46:41.684Z,5.50
2022-09-01T17:49:15.231Z,3.50
2022-09-01T17:51:49.237Z,6.10
2022-09-01T17:54:21.946Z,7.05
2022-09-01T17:56:55.003Z,5.15
2022-09-01T17:59:26.837Z,4.35
2022-09-01T18:02:00.958Z,5.53
2022-09-01T18:04:41.161Z,5.82
2022-09-01T18:07:12.307Z,3.85
2022-09-01T18:09:43.787Z,3.70
2022-09-01T18:12:13.691Z,5.47
2022-09-01T18:14:43.571Z,5.30
2022-09-01T18:17:16.058Z,7.03
2022-09-01T18:19:45.252Z,4.85
2022-09-01T18:22:16.048Z,7.68
2022-09-01T18:24:47.983Z,9.30
2022-09-01T18:27:15.715Z,7.00
2022-09-01T18:29:43.650Z,12.05
2022-09-01T18:32:19.071Z,7.00
2022-09-01T18:34:52.625Z,5.63
2022-09-01T18:37:24.224Z,14.40
2022-09-01T18:39:56.499Z,6.75
2022-09-01T18:42:27.145Z,7.25
2022-09-01T18:44:58.604Z,8.52
2022-09-01T18:47:35.020Z,10.25
2022-09-01T18:50:14.451Z,8.13
2022-09-01T18:52:57.050Z,4.97
2022-09-01T18:55:26.498Z,5.68
2022-09-01T18:57:56.340Z,5.82
2022-09-01T19:00:28.007Z,3.50
2022-09-01T19:03:04.775Z,2.75
2022-09-01T19:05:49.562Z,4.45
2022-09-01T19:10:51.722Z,4.53
2022-09-01T19:13:28.249Z,4.07
2022-09-01T19:16:04.518Z,7.88
2022-09-01T19:18:39.772Z,4.88
2022-09-01T19:21:13.992Z,6.10
2022-09-01T19:26:16.411Z,5.18
2022-09-01T19:28:47.778Z,2.38
2022-09-01T19:31:19.793Z,7.97
2022-09-01T19:33:50.584Z,5.68
2022-09-01T19:36:20.258Z,3.15
2022-09-01T19:38:49.596Z,3.15
2022-09-01T19:41:22.533Z,3.60
2022-09-01T19:43:53.118Z,5.63
2022-09-01T19:46:23.964Z,5.07
2022-09-01T19:48:58.300Z,3.83
2022-09-01T19:51:33.155Z,1.67
2022-09-01T19:54:03.283Z,1.70
2022-09-01T19:56:39.711Z,2.10
2022-09-01T19:59:14.414Z,3.90
2022-09-01T20:01:47.364Z,1.65
2022-09-01T20:04:21.703Z,4.78
2022-09-01T20:09:19.235Z,2.53
2022-09-01T20:11:49.251Z,6.95
2022-09-01T20:14:32.217Z,2.88
2022-09-01T20:17:07.307Z,3.92
2022-09-01T20:19:41.610Z,3.80
2022-09-01T20:24:40.222Z,2.58
2022-09-01T20:27:12.712Z,6.03
2022-09-01T20:29:45.209Z,4.60
2022-09-01T20:32:14.663Z,3.28
2022-09-01T20:34:45.404Z,1.30
2022-09-01T20:37:16.129Z,2.88
2022-09-01T20:40:07.191Z,4.45
2022-09-01T20:42:38.637Z,2.00
2022-09-01T20:45:11.110Z,2.20
2022-09-01T20:47:38.801Z,1.88
2022-09-01T20:50:12.734Z,1.75
2022-09-01T20:52:44.918Z,2.28
2022-09-01T20:55:14.999Z,2.28
2022-09-01T20:57:46.544Z,3.88
2022-09-01T21:00:17.026Z,4.03
2022-09-01T21:02:55.473Z,2.47
2022-09-01T21:05:34.101Z,4.18
2022-09-01T21:08:21.030Z,6.22
2022-09-01T21:10:51.708Z,3.17
2022-09-01T21:13:25.523Z,4.28
2022-09-01T21:15:57.826Z,4.18
2022-09-01T21:18:33.932Z,6.28
2022-09-01T21:21:07.254Z,2.97
2022-09-01T21:23:34.920Z,2.53
2022-09-01T21:26:02.976Z,5.53
2022-09-01T21:28:31.477Z,3.17
2022-09-01T21:31:00.159Z,2.58
2022-09-01T21:33:29.629Z,5.82
2022-09-01T21:35:57.575Z,3.83
2022-09-01T21:38:26.962Z,2.83
2022-09-01T21:40:55.181Z,4.90
2022-09-01T21:43:24.139Z,5.43
2022-09-01T21:45:51.824Z,3.65
2022-09-01T21:48:19.585Z,3.85
2022-09-01T21:50:50.439Z,5.70
2022-09-01T21:53:18.461Z,4.70
2022-09-01T21:55:47.718Z,3.80
2022-09-01T21:58:15.513Z,4.22
2022-09-01T22:00:44.577Z,4.30
2022-09-01T22:03:13.045Z,6.43
2022-09-01T22:05:42.341Z,10.73
2022-09-01T22:08:12.248Z,14.80
2022-09-01T22:10:42.644Z,11.95
2022-09-01T22:13:12.481Z,9.73
2022-09-01T22:15:42.791Z,12.77
2022-09-01T22:18:10.547Z,10.40
2022-09-01T22:20:38.312Z,12.10
2022-09-01T22:23:05.999Z,15.63
2022-09-01T22:25:34.056Z,12.43
2022-09-01T22:28:02.659Z,17.98
2022-09-01T22:30:31.907Z,12.02
2022-09-01T22:33:00.463Z,17.63
2022-09-01T22:35:28.241Z,12.30
2022-09-01T22:37:56.241Z,12.43
2022-09-01T22:40:24.095Z,10.07
2022-09-01T22:42:52.608Z,11.57
2022-09-01T22:45:20.447Z,10.00
2022-09-01T22:47:49.569Z,13.18
2022-09-01T22:50:17.189Z,13.60
2022-09-01T22:52:44.871Z,9.63
2022-09-01T22:55:13.724Z,9.80
2022-09-01T22:57:41.406Z,9.77
2022-09-01T23:00:12.174Z,8.15
2022-09-01T23:02:40.277Z,8.68
2022-09-01T23:05:10.709Z,11.63
2022-09-01T23:07:39.806Z,9.00
2022-09-01T23:10:09.520Z,14.63
2022-09-01T23:12:37.183Z,14.20
2022-09-01T23:15:05.633Z,17.10
2022-09-01T23:17:33.381Z,15.63
2022-09-01T23:20:02.401Z,18.70
2022-09-01T23:22:31.519Z,14.88
2022-09-01T23:24:59.303Z,21.30
2022-09-01T23:27:26.993Z,16.83
2022-09-01T23:29:54.652Z,26.67
2022-09-01T23:32:22.307Z,15.35
2022-09-01T23:34:50.281Z,15.32
2022-09-01T23:37:18.199Z,12.93
2022-09-01T23:39:47.261Z,18.10
2022-09-01T23:42:14.969Z,15.85
2022-09-01T23:44:42.607Z,13.65
2022-09-01T23:47:10.423Z,18.40
2022-09-01T23:49:39.511Z,14.27
2022-09-01T23:52:07.346Z,19.58
2022-09-01T23:54:35.246Z,18.98
2022-09-01T23:57:04.402Z,14.30
2022-09-01T23:59:32.076Z,16.48
